Keithville, Louisiana
Current Conditions -  °F | °C
As of 6:56 PM on Friday 24 Oct 2014 (Local Time) from KSHV Reporting Station
Broken Clouds Broken Clouds  
Wind Chill: 68°   Ceiling: 29000
Heat Index: 68°   Visibility: 10mi
Dew Point: 58°   Wind: 0mph
Humidity: 70%   Direction: NA
Pressure: 30.1"   Gusts: NA
Location:  32.33°N, 93.84°W
Report Text: KSHV 242356Z 00000KT 10SM BKN290 20/14 A3010 RMK AO2 SLP192 T02000144 10256 20200 55001
Loading
Personal Weather Stations






























Interactive Weather Map
Tropical Storm Tracking
New forecast layout! Learn more

10-Day Weather Forecast

Advertisements
Track Severe Weather on mobile